createdAt,value
2022-11-13T00:01:19.781Z,51.80
2022-11-13T00:03:47.141Z,53.67
2022-11-13T00:06:15.552Z,51.57
2022-11-13T00:08:42.631Z,46.97
2022-11-13T00:11:18.510Z,51.23
2022-11-13T00:13:46.440Z,52.07
2022-11-13T00:16:16.142Z,49.93
2022-11-13T00:18:43.463Z,49.77
2022-11-13T00:21:19.448Z,50.50
2022-11-13T00:23:47.993Z,50.80
2022-11-13T00:26:17.610Z,47.30
2022-11-13T00:28:45.233Z,53.57
2022-11-13T00:31:14.878Z,55.23
2022-11-13T00:36:29.333Z,50.70
2022-11-13T00:38:56.489Z,53.97
2022-11-13T00:41:24.242Z,50.23
2022-11-13T00:43:51.578Z,52.50
2022-11-13T00:46:19.446Z,56.60
2022-11-13T00:48:46.521Z,55.73
2022-11-13T00:51:13.850Z,51.13
2022-11-13T00:53:40.867Z,49.87
2022-11-13T00:56:08.261Z,54.53
2022-11-13T00:58:35.354Z,53.17
2022-11-13T01:01:12.242Z,53.73
2022-11-13T01:03:39.175Z,51.27
2022-11-13T01:06:17.699Z,57.67
2022-11-13T01:08:44.860Z,54.50
2022-11-13T01:11:18.592Z,59.13
2022-11-13T01:13:48.037Z,54.67
2022-11-13T01:16:16.629Z,57.50
2022-11-13T01:18:44.246Z,59.77
2022-11-13T01:21:15.136Z,54.60
2022-11-13T01:23:42.270Z,55.43
2022-11-13T01:26:17.502Z,55.97
2022-11-13T01:28:45.087Z,59.23
2022-11-13T01:31:15.290Z,60.10
2022-11-13T01:33:43.200Z,51.77
2022-11-13T01:36:25.628Z,55.80
2022-11-13T01:38:53.082Z,55.67
2022-11-13T01:41:29.304Z,54.33
2022-11-13T01:43:56.960Z,57.87
2022-11-13T01:46:28.223Z,57.60
2022-11-13T01:49:10.003Z,57.03
2022-11-13T01:51:54.046Z,56.63
2022-11-13T01:54:25.668Z,57.63
2022-11-13T01:56:55.089Z,60.57
2022-11-13T01:59:29.158Z,58.03
2022-11-13T02:01:56.938Z,53.87
2022-11-13T02:07:11.709Z,54.73
2022-11-13T02:09:42.389Z,60.33
2022-11-13T02:12:12.775Z,54.47
2022-11-13T02:14:52.415Z,56.90
2022-11-13T02:17:23.766Z,54.33
2022-11-13T02:19:55.649Z,57.13
2022-11-13T02:22:34.457Z,59.80
2022-11-13T02:25:03.700Z,54.83
2022-11-13T02:27:42.894Z,58.83
2022-11-13T02:30:36.342Z,55.70
2022-11-13T02:33:30.389Z,50.63
2022-11-13T02:35:57.502Z,53.90
2022-11-13T02:38:24.430Z,51.57
2022-11-13T02:40:51.277Z,53.87
2022-11-13T02:43:19.313Z,55.00
2022-11-13T02:45:46.165Z,52.50
2022-11-13T02:48:13.078Z,56.83
2022-11-13T02:50:40.050Z,59.33
2022-11-13T02:53:07.362Z,59.07
2022-11-13T02:55:34.215Z,60.83
2022-11-13T02:58:01.062Z,63.60
2022-11-13T03:00:27.899Z,62.20
2022-11-13T03:02:55.886Z,70.53
2022-11-13T03:05:23.483Z,60.47
2022-11-13T03:07:50.478Z,68.73
2022-11-13T03:10:17.861Z,66.93
2022-11-13T03:12:44.801Z,63.33
2022-11-13T03:15:11.695Z,65.70
2022-11-13T03:17:38.756Z,59.60
2022-11-13T03:20:05.821Z,57.37
2022-11-13T03:22:32.716Z,63.37
2022-11-13T03:25:00.484Z,62.80
2022-11-13T03:27:27.393Z,68.50
2022-11-13T03:29:54.170Z,61.33
2022-11-13T03:32:21.200Z,61.90
2022-11-13T03:34:49.158Z,64.27
2022-11-13T03:37:16.336Z,60.47
2022-11-13T03:39:44.364Z,60.70
2022-11-13T03:42:11.144Z,61.17
2022-11-13T03:44:38.944Z,56.67
2022-11-13T03:47:05.829Z,53.47
2022-11-13T03:49:32.620Z,59.20
2022-11-13T03:51:59.448Z,53.90
2022-11-13T03:54:26.307Z,58.03
2022-11-13T03:56:53.169Z,53.33
2022-11-13T03:59:19.989Z,54.67
2022-11-13T04:01:46.852Z,51.83
2022-11-13T04:04:13.783Z,55.30
2022-11-13T04:06:40.657Z,52.87
2022-11-13T04:09:08.089Z,57.27
2022-11-13T04:11:35.115Z,51.33
2022-11-13T04:14:02.018Z,53.77
2022-11-13T04:16:28.824Z,55.80
2022-11-13T04:18:55.668Z,49.37
2022-11-13T04:21:22.511Z,53.47
2022-11-13T04:23:49.336Z,48.70
2022-11-13T04:26:17.182Z,54.20
2022-11-13T04:28:43.981Z,49.33
2022-11-13T04:31:10.796Z,52.47
2022-11-13T04:33:37.537Z,51.33
2022-11-13T04:36:04.658Z,52.60
2022-11-13T04:38:31.780Z,54.90
2022-11-13T04:41:17.526Z,50.80
2022-11-13T04:43:44.391Z,52.87
2022-11-13T04:46:11.206Z,46.57
2022-11-13T04:48:38.084Z,47.37
2022-11-13T04:51:05.353Z,47.60
2022-11-13T04:53:32.343Z,46.57
2022-11-13T04:55:59.249Z,46.43
2022-11-13T04:58:26.218Z,48.67
2022-11-13T05:00:53.187Z,50.40
2022-11-13T05:03:20.031Z,53.57
2022-11-13T05:05:47.128Z,49.00
2022-11-13T05:08:13.970Z,45.77
2022-11-13T05:10:41.677Z,50.57
2022-11-13T05:13:08.463Z,52.90
2022-11-13T05:15:35.213Z,44.23
2022-11-13T05:18:02.119Z,50.23
2022-11-13T05:20:29.902Z,44.60
2022-11-13T05:22:56.986Z,44.77
2022-11-13T05:25:23.929Z,46.37
2022-11-13T05:27:50.721Z,46.93
2022-11-13T05:30:17.885Z,46.20
2022-11-13T05:32:44.755Z,43.83
2022-11-13T05:35:12.854Z,46.33
2022-11-13T05:37:40.269Z,44.87
2022-11-13T05:40:07.861Z,48.13
2022-11-13T05:42:34.925Z,49.20
2022-11-13T05:45:01.745Z,45.80
2022-11-13T05:47:28.563Z,48.77
2022-11-13T05:49:55.413Z,49.80
2022-11-13T05:52:22.254Z,47.00
2022-11-13T05:54:49.140Z,46.00
2022-11-13T05:57:16.005Z,42.23
2022-11-13T05:59:42.805Z,50.20
2022-11-13T06:02:09.774Z,46.93
2022-11-13T06:04:36.785Z,48.20
2022-11-13T06:07:03.567Z,47.40
2022-11-13T06:09:30.592Z,45.43
2022-11-13T06:11:57.457Z,49.10
2022-11-13T06:14:24.907Z,43.80
2022-11-13T06:16:51.723Z,55.00
2022-11-13T06:19:18.579Z,46.80
2022-11-13T06:21:45.456Z,53.43
2022-11-13T06:24:12.991Z,49.53
2022-11-13T06:26:40.703Z,42.00
2022-11-13T06:29:09.814Z,42.87
2022-11-13T06:31:37.753Z,36.97
2022-11-13T06:34:05.813Z,40.87
2022-11-13T06:36:35.516Z,39.10
2022-11-13T06:39:06.617Z,38.17
2022-11-13T06:41:33.688Z,41.10
2022-11-13T06:44:03.141Z,34.87
2022-11-13T06:46:31.401Z,31.70
2022-11-13T06:48:58.862Z,29.70
2022-11-13T06:51:28.883Z,25.67
2022-11-13T06:53:58.187Z,24.07
2022-11-13T06:56:25.664Z,23.60
2022-11-13T06:58:54.133Z,18.87
2022-11-13T07:01:23.904Z,13.10
2022-11-13T07:03:51.094Z,16.07
2022-11-13T07:06:20.578Z,16.17
2022-11-13T07:08:48.097Z,18.77
2022-11-13T07:11:18.999Z,28.30
2022-11-13T07:13:46.585Z,25.63
2022-11-13T07:16:17.347Z,26.13
2022-11-13T07:18:54.910Z,29.63
2022-11-13T07:21:22.618Z,26.10
2022-11-13T07:23:50.430Z,20.00
2022-11-13T07:26:18.238Z,23.93
2022-11-13T07:28:45.944Z,22.53
2022-11-13T07:31:14.306Z,21.57
2022-11-13T07:33:41.599Z,22.50
2022-11-13T07:36:09.930Z,26.33
2022-11-13T07:38:36.949Z,22.37
2022-11-13T07:41:04.232Z,21.13
2022-11-13T07:43:31.294Z,20.47
2022-11-13T07:45:59.635Z,21.73
2022-11-13T07:48:28.106Z,27.93
2022-11-13T07:50:55.688Z,25.73
2022-11-13T07:53:23.177Z,26.20
2022-11-13T07:55:50.019Z,26.70
2022-11-13T07:58:17.197Z,24.40
2022-11-13T08:00:44.711Z,28.07
2022-11-13T08:03:18.599Z,23.77
2022-11-13T08:05:45.698Z,24.80
2022-11-13T08:08:14.005Z,22.70
2022-11-13T08:10:41.263Z,27.30
2022-11-13T08:13:10.555Z,25.33
2022-11-13T08:15:38.171Z,26.27
2022-11-13T08:18:05.721Z,25.97
2022-11-13T08:20:32.890Z,20.40
2022-11-13T08:23:04.673Z,26.00
2022-11-13T08:25:32.584Z,20.07
2022-11-13T08:27:59.842Z,22.03
2022-11-13T08:30:27.914Z,23.43
2022-11-13T08:32:55.168Z,19.80
2022-11-13T08:35:28.017Z,21.37
2022-11-13T08:38:03.079Z,21.87
2022-11-13T08:40:30.345Z,23.37
2022-11-13T08:43:04.745Z,25.80
2022-11-13T08:45:32.708Z,25.37
2022-11-13T08:48:04.569Z,23.43
2022-11-13T08:50:33.391Z,23.17
2022-11-13T08:53:01.162Z,18.90
2022-11-13T08:55:28.375Z,15.97
2022-11-13T08:57:59.292Z,15.47
2022-11-13T09:00:28.478Z,14.10
2022-11-13T09:02:56.673Z,14.30
2022-11-13T09:05:24.721Z,16.00
2022-11-13T09:07:55.359Z,13.90
2022-11-13T09:10:22.234Z,14.97
2022-11-13T09:12:49.049Z,13.67
2022-11-13T09:15:21.699Z,18.17
2022-11-13T09:17:51.050Z,18.10
2022-11-13T09:20:22.461Z,15.03
2022-11-13T09:22:57.026Z,12.80
2022-11-13T09:25:23.894Z,12.87
2022-11-13T09:27:59.122Z,14.77
2022-11-13T09:30:26.888Z,12.67
2022-11-13T09:32:59.083Z,16.63
2022-11-13T09:35:36.225Z,15.17
2022-11-13T09:38:11.788Z,15.67
2022-11-13T09:40:55.240Z,15.67
2022-11-13T09:43:35.045Z,60.97
2022-11-13T09:46:21.555Z,29.53
2022-11-13T09:48:55.878Z,31.60
2022-11-13T09:51:29.533Z,21.37
2022-11-13T09:53:57.640Z,18.40
2022-11-13T09:56:55.597Z,21.77
2022-11-13T09:59:50.029Z,19.33
2022-11-13T10:02:47.674Z,29.17
2022-11-13T10:05:33.018Z,24.10
2022-11-13T10:08:35.882Z,26.57
2022-11-13T10:11:15.745Z,23.80
2022-11-13T10:13:52.260Z,21.77
2022-11-13T10:16:57.241Z,22.17
2022-11-13T10:19:23.983Z,23.73
2022-11-13T10:22:26.571Z,64.80
2022-11-13T10:24:52.702Z,145.47
2022-11-13T10:27:19.586Z,104.17
2022-11-13T10:29:49.138Z,26.13
2022-11-13T10:32:23.397Z,35.73
2022-11-13T10:35:01.228Z,49.93
2022-11-13T10:37:45.124Z,36.67
2022-11-13T10:40:11.979Z,90.23
2022-11-13T10:42:42.009Z,36.83
2022-11-13T10:45:18.703Z,23.87
2022-11-13T10:48:03.888Z,19.60
2022-11-13T10:50:33.113Z,23.07
2022-11-13T10:52:59.954Z,20.67
2022-11-13T10:55:41.317Z,22.23
2022-11-13T10:58:19.729Z,18.90
2022-11-13T11:00:49.774Z,15.17
2022-11-13T11:03:25.627Z,15.30
2022-11-13T11:05:59.022Z,14.40
2022-11-13T11:08:34.032Z,17.23
2022-11-13T11:11:31.963Z,20.10
2022-11-13T11:14:18.609Z,18.50
2022-11-13T11:16:47.498Z,17.90
2022-11-13T11:19:16.516Z,20.50
2022-11-13T11:21:44.696Z,16.73
2022-11-13T11:24:21.221Z,21.40
2022-11-13T11:27:02.413Z,19.43
2022-11-13T11:29:41.356Z,19.33
2022-11-13T11:33:00.489Z,19.60
2022-11-13T11:35:46.187Z,20.87
2022-11-13T11:38:33.207Z,17.77
2022-11-13T11:41:13.316Z,20.67
2022-11-13T11:43:47.579Z,18.33
2022-11-13T11:46:19.829Z,20.43
2022-11-13T11:48:46.743Z,17.27
2022-11-13T11:51:19.276Z,19.13
2022-11-13T11:53:46.238Z,16.27
2022-11-13T11:56:32.803Z,17.83
2022-11-13T11:59:21.751Z,19.17
2022-11-13T12:02:06.120Z,22.87
2022-11-13T12:04:35.710Z,17.17
2022-11-13T12:07:26.392Z,14.23
2022-11-13T12:10:01.681Z,15.83
2022-11-13T12:12:31.246Z,22.63
2022-11-13T12:15:13.624Z,17.00
2022-11-13T12:18:33.175Z,16.60
2022-11-13T12:21:18.740Z,26.80
2022-11-13T12:24:23.690Z,27.40
2022-11-13T12:27:09.770Z,19.90
2022-11-13T12:30:00.293Z,20.37
2022-11-13T12:33:01.091Z,21.40
2022-11-13T12:35:29.330Z,15.10
2022-11-13T12:37:58.463Z,18.67
2022-11-13T12:40:42.865Z,17.37
2022-11-13T12:43:34.046Z,17.07
2022-11-13T12:46:08.710Z,19.87
2022-11-13T12:48:36.985Z,18.87
2022-11-13T12:51:07.927Z,15.67
2022-11-13T12:53:50.275Z,18.97
2022-11-13T12:56:27.543Z,18.53
2022-11-13T13:02:08.758Z,21.63
2022-11-13T13:04:54.157Z,15.03
2022-11-13T13:07:44.572Z,20.03
2022-11-13T13:10:16.629Z,17.00
2022-11-13T13:13:01.903Z,17.50
2022-11-13T13:15:53.002Z,16.43
2022-11-13T13:18:20.911Z,17.13
2022-11-13T13:21:15.633Z,18.77
2022-11-13T13:23:46.228Z,29.40
2022-11-13T13:26:27.634Z,20.93
2022-11-13T13:29:11.361Z,19.73
2022-11-13T13:31:57.523Z,18.17
2022-11-13T13:35:01.962Z,14.67
2022-11-13T13:37:47.596Z,15.47
2022-11-13T13:40:52.790Z,15.10
2022-11-13T13:43:19.803Z,14.37
2022-11-13T13:45:55.713Z,17.20
2022-11-13T13:48:27.424Z,17.67
2022-11-13T13:50:56.943Z,17.87
2022-11-13T13:53:33.388Z,18.37
2022-11-13T13:56:03.727Z,14.13
2022-11-13T13:58:34.651Z,14.77
2022-11-13T14:01:19.015Z,16.90
2022-11-13T14:03:46.969Z,16.60
2022-11-13T14:06:24.579Z,16.10
2022-11-13T14:08:51.603Z,14.70
2022-11-13T14:11:29.843Z,16.07
2022-11-13T14:14:11.121Z,14.53
2022-11-13T14:16:52.351Z,18.10
2022-11-13T14:19:19.787Z,14.77
2022-11-13T14:21:53.144Z,16.63
2022-11-13T14:24:34.185Z,18.67
2022-11-13T14:27:07.695Z,16.87
2022-11-13T14:29:47.799Z,18.17
2022-11-13T14:32:24.573Z,19.37
2022-11-13T14:34:55.373Z,17.87
2022-11-13T14:37:39.970Z,17.47
2022-11-13T14:40:26.423Z,16.57
2022-11-13T14:42:59.676Z,15.57
2022-11-13T14:45:31.512Z,16.50
2022-11-13T14:48:24.418Z,19.57
2022-11-13T14:50:52.903Z,19.23
2022-11-13T14:53:30.909Z,26.73
2022-11-13T14:56:09.135Z,28.07
2022-11-13T14:58:47.202Z,25.97
2022-11-13T15:01:23.611Z,30.57
2022-11-13T15:03:52.528Z,40.27
2022-11-13T15:06:22.004Z,32.47
2022-11-13T15:08:51.336Z,29.20
2022-11-13T15:11:20.011Z,35.23
2022-11-13T15:13:47.222Z,37.50
2022-11-13T15:16:20.410Z,41.30
2022-11-13T15:18:51.850Z,39.53
2022-11-13T15:21:19.108Z,33.70
2022-11-13T15:23:45.994Z,32.17
2022-11-13T15:26:13.253Z,38.77
2022-11-13T15:28:40.666Z,39.20
2022-11-13T15:31:31.838Z,31.63
2022-11-13T15:33:59.047Z,25.43
2022-11-13T15:36:26.656Z,26.30
2022-11-13T15:38:53.818Z,24.20
2022-11-13T15:41:22.876Z,28.47
2022-11-13T15:43:52.612Z,26.03
2022-11-13T15:46:20.885Z,27.93
2022-11-13T15:48:49.028Z,28.77
2022-11-13T15:51:24.857Z,31.50
2022-11-13T15:54:18.576Z,30.20
2022-11-13T15:56:47.183Z,34.63
2022-11-13T15:59:14.961Z,50.43
2022-11-13T16:01:42.197Z,44.97
2022-11-13T16:04:11.975Z,36.73
2022-11-13T16:06:40.345Z,32.27
2022-11-13T16:09:14.136Z,36.20
2022-11-13T16:11:42.478Z,35.47
2022-11-13T16:14:11.174Z,30.37
2022-11-13T16:16:43.591Z,30.67
2022-11-13T16:19:15.101Z,37.07
2022-11-13T16:21:42.081Z,33.37
2022-11-13T16:24:11.452Z,31.67
2022-11-13T16:26:40.127Z,31.70
2022-11-13T16:29:19.343Z,28.90
2022-11-13T16:31:46.656Z,32.77
2022-11-13T16:34:13.833Z,30.63
2022-11-13T16:36:41.315Z,28.37
2022-11-13T16:39:17.356Z,27.00
2022-11-13T16:41:44.265Z,31.93
2022-11-13T16:44:11.313Z,31.43
2022-11-13T16:46:41.724Z,37.93
2022-11-13T16:49:21.182Z,36.33
2022-11-13T16:51:48.239Z,41.03
2022-11-13T16:54:15.326Z,40.97
2022-11-13T16:56:42.287Z,40.07
2022-11-13T16:59:10.857Z,43.30
2022-11-13T17:01:38.193Z,40.80
2022-11-13T17:04:05.133Z,44.60
2022-11-13T17:06:37.141Z,58.50
2022-11-13T17:09:04.776Z,61.07
2022-11-13T17:11:32.891Z,51.47
2022-11-13T17:14:02.433Z,41.27
2022-11-13T17:16:31.090Z,36.37
2022-11-13T17:18:59.502Z,34.20
2022-11-13T17:21:29.565Z,37.00
2022-11-13T17:24:01.047Z,36.93
2022-11-13T17:26:29.258Z,39.90
2022-11-13T17:28:56.275Z,33.90
2022-11-13T17:31:24.220Z,31.33
2022-11-13T17:33:55.139Z,33.53
2022-11-13T17:36:22.703Z,28.20
2022-11-13T17:38:50.576Z,32.10
2022-11-13T17:41:17.699Z,32.27
2022-11-13T17:43:45.980Z,32.80
2022-11-13T17:46:15.216Z,32.63
2022-11-13T17:48:43.162Z,36.50
2022-11-13T17:51:15.062Z,33.67
2022-11-13T17:53:42.157Z,34.10
2022-11-13T17:56:13.382Z,34.17
2022-11-13T17:58:45.261Z,35.07
2022-11-13T18:01:19.503Z,34.47
2022-11-13T18:03:47.476Z,37.03
2022-11-13T18:06:19.702Z,34.87
2022-11-13T18:08:47.411Z,30.30
2022-11-13T18:11:19.375Z,34.27
2022-11-13T18:13:50.792Z,32.07
2022-11-13T18:16:34.469Z,33.70
2022-11-13T18:19:03.505Z,31.77
2022-11-13T18:21:32.530Z,29.23
2022-11-13T18:24:05.533Z,29.17
2022-11-13T18:26:33.142Z,26.97
2022-11-13T18:29:01.006Z,26.33
2022-11-13T18:31:28.058Z,24.40
2022-11-13T18:33:56.226Z,30.03
2022-11-13T18:36:23.188Z,29.17
2022-11-13T18:38:49.989Z,28.57
2022-11-13T18:41:19.096Z,21.50
2022-11-13T18:43:48.208Z,23.97
2022-11-13T18:46:17.408Z,23.40
2022-11-13T18:48:45.362Z,24.17
2022-11-13T18:51:15.630Z,29.57
2022-11-13T18:53:45.538Z,25.07
2022-11-13T18:56:15.030Z,27.33
2022-11-13T18:58:44.548Z,24.43
2022-11-13T19:01:22.660Z,29.70
2022-11-13T19:04:16.208Z,23.83
2022-11-13T19:06:39.213Z,23.83
2022-11-13T19:09:10.591Z,23.00
2022-11-13T19:11:37.593Z,24.27
2022-11-13T19:14:04.799Z,22.80
2022-11-13T19:16:37.166Z,21.67
2022-11-13T19:19:07.913Z,21.87
2022-11-13T19:21:36.646Z,23.33
2022-11-13T19:24:03.993Z,21.90
2022-11-13T19:26:31.361Z,19.83
2022-11-13T19:28:58.790Z,23.73
2022-11-13T19:31:27.646Z,23.83
2022-11-13T19:33:59.721Z,24.47
2022-11-13T19:36:28.384Z,26.33
2022-11-13T19:38:56.231Z,26.97
2022-11-13T19:41:25.353Z,23.63
2022-11-13T19:43:52.760Z,26.60
2022-11-13T19:46:20.221Z,29.73
2022-11-13T19:48:49.081Z,26.63
2022-11-13T19:51:18.884Z,24.77
2022-11-13T19:53:46.490Z,20.47
2022-11-13T19:56:21.670Z,20.27
2022-11-13T19:58:49.838Z,24.83
2022-11-13T20:01:22.119Z,24.93
2022-11-13T20:03:57.125Z,22.20
2022-11-13T20:06:25.557Z,22.90
2022-11-13T20:08:52.558Z,19.23
2022-11-13T20:11:19.522Z,20.00
2022-11-13T20:13:46.659Z,22.63
2022-11-13T20:16:15.554Z,26.53
2022-11-13T20:18:43.263Z,23.33
2022-11-13T20:21:10.488Z,26.27
2022-11-13T20:23:37.586Z,25.57
2022-11-13T20:26:07.535Z,24.17
2022-11-13T20:28:34.838Z,25.33
2022-11-13T20:31:16.340Z,26.53
2022-11-13T20:33:43.389Z,30.97
2022-11-13T20:36:10.458Z,25.83
2022-11-13T20:38:37.530Z,29.40
2022-11-13T20:41:10.834Z,29.17
2022-11-13T20:43:38.225Z,30.13
2022-11-13T20:46:10.128Z,27.13
2022-11-13T20:48:37.929Z,30.37
2022-11-13T20:51:06.404Z,28.00
2022-11-13T20:53:33.919Z,31.53
2022-11-13T20:56:00.832Z,27.47
2022-11-13T20:58:28.050Z,27.03
2022-11-13T21:01:05.443Z,30.47
2022-11-13T21:03:37.139Z,29.53
2022-11-13T21:06:08.090Z,29.30
2022-11-13T21:08:35.153Z,30.10
2022-11-13T21:11:03.619Z,26.77
2022-11-13T21:13:30.802Z,27.13
2022-11-13T21:15:58.094Z,29.17
2022-11-13T21:18:25.251Z,26.37
2022-11-13T21:20:52.075Z,29.17
2022-11-13T21:23:18.836Z,29.13
2022-11-13T21:25:45.618Z,29.80
2022-11-13T21:28:12.445Z,29.57
2022-11-13T21:30:39.236Z,29.20
2022-11-13T21:33:06.093Z,31.20
2022-11-13T21:35:32.916Z,29.53
2022-11-13T21:37:59.733Z,30.10
2022-11-13T21:40:26.773Z,31.13
2022-11-13T21:42:55.959Z,32.23
2022-11-13T21:45:22.755Z,28.87
2022-11-13T21:47:49.502Z,25.73
2022-11-13T21:50:16.312Z,24.47
2022-11-13T21:52:43.297Z,30.97
2022-11-13T21:55:10.686Z,32.50
2022-11-13T21:57:37.454Z,25.67
2022-11-13T22:00:04.608Z,29.50
2022-11-13T22:02:31.382Z,35.37
2022-11-13T22:04:58.171Z,31.37
2022-11-13T22:07:24.960Z,33.63
2022-11-13T22:09:51.875Z,30.07
2022-11-13T22:12:18.643Z,32.47
2022-11-13T22:14:45.698Z,31.73
2022-11-13T22:17:12.459Z,30.03
2022-11-13T22:19:39.287Z,31.27
2022-11-13T22:22:06.129Z,29.47
2022-11-13T22:24:32.912Z,28.67
2022-11-13T22:26:59.682Z,29.60
2022-11-13T22:29:26.780Z,27.87
2022-11-13T22:31:53.540Z,30.57
2022-11-13T22:34:20.360Z,32.17
2022-11-13T22:36:47.144Z,26.27
2022-11-13T22:39:13.979Z,26.80
2022-11-13T22:41:40.689Z,26.67
2022-11-13T22:44:10.469Z,27.60
2022-11-13T22:46:37.338Z,29.80
2022-11-13T22:49:05.709Z,23.67
2022-11-13T22:51:38.714Z,29.67
2022-11-13T22:54:12.968Z,29.17
2022-11-13T22:56:41.074Z,27.00
2022-11-13T22:59:10.531Z,21.63
2022-11-13T23:01:39.053Z,24.50
2022-11-13T23:04:07.950Z,25.83
2022-11-13T23:06:36.157Z,24.60
2022-11-13T23:09:04.035Z,24.27
2022-11-13T23:11:38.029Z,22.43
2022-11-13T23:14:07.849Z,24.20
2022-11-13T23:16:34.890Z,23.83
2022-11-13T23:19:02.780Z,20.70
2022-11-13T23:21:30.704Z,24.37
2022-11-13T23:23:59.269Z,22.03
2022-11-13T23:26:27.842Z,21.23
2022-11-13T23:28:55.198Z,20.00
2022-11-13T23:31:22.542Z,20.40
2022-11-13T23:33:49.651Z,17.10
2022-11-13T23:36:18.098Z,19.33
2022-11-13T23:38:45.711Z,22.40
2022-11-13T23:41:12.882Z,16.73
2022-11-13T23:44:09.870Z,21.50
2022-11-13T23:46:26.933Z,20.00
2022-11-13T23:48:53.757Z,18.73
2022-11-13T23:51:20.579Z,18.27
2022-11-13T23:53:47.494Z,20.13
2022-11-13T23:56:14.314Z,17.53
2022-11-13T23:58:41.114Z,18.80
